Terrace Airport
CYXT : now visible

Airfield :











YOU CAN JOIN US ON...

 
LOGIN :

Register | Disclaimer

   EN    FR    IT 

 









Legend :    VFR   Marginal VFR   IFR   Intensive IFR   Very Intensive IFR
Visi :
Ceiling :
>= 8 km
>= 3000ft
5 to 8 km
1000 to 3000 ft
1500m to 5 km
500 to 1000 ft
800 to 1500m
200 to 500 ft
< 800m
< 200 ft
Symbols :   Thunderstorms  Fog  Heavy snow  Heavy precipitations  Wind > 20 kt






- Airport Elevation : 713 ft
- IATA code : YXT


CYXT - Terrace

CURRENT METAR :
  • 250100Z 18010KT 15SM FEW010 FEW040 BKN055 OVC080 12/10 A3018 RMK CF1SC1SC4AC2 SLP228

EXPIRED METARs :
  • 250000Z 21004KT 20SM FEW015 FEW040 BKN055 OVC080 13/10 A3020 RMK CF1SC1SC4AC2 SLP233
  • 242300Z 20009KT 20SM FEW015 SCT040 BKN060 OVC080 14/10 A3021 RMK CF1SC2SC3AC2 SLP236

TAF TAF CYXT
Valid from the 25 at 01:00 until the 25 at 13:00 UTC


250040Z 2501/2513 21005KT P6SM FEW015 SCT040 OVC080
TEMPO 2501/2503 P6SM -SHRA SCT015 BKN040
FM250300 18008KT P6SM -RA SCT012 OVC040
TEMPO 2503/2506 5SM -RA BR OVC012
FM250600 16008KT P6SM -RA SCT005 BKN025 OVC040
TEMPO 2506/2513 2SM -RA BR OVC005
PROB30 2506/2513 1/2SM -RA FG VV002 RMK NXT FCST BY 250700Z
CZVR FIR / North America



MET'MAP, your aeronautical weather chart ! - Copyright ORBIFLY December 2007 - Disclaimer

ORBIFLY MET'MAP TEAM :

Programming & Development : Alexandra Zaïnal
Original concept : Baudouin d'Aumeries
Technical & hardware support : Manuel Goepfert
Assistance : Marc-Olivier Méhu




SOURCES & CREDITS :

   NOAA       Earth
Advisory